createdAt,value
2022-10-05T00:02:20.639Z,80.70
2022-10-05T00:04:55.776Z,80.59
2022-10-05T00:07:56.807Z,80.54
2022-10-05T00:10:25.088Z,80.65
2022-10-05T00:13:28.162Z,80.69
2022-10-05T00:16:11.710Z,80.63
2022-10-05T00:18:40.429Z,80.64
2022-10-05T00:21:26.179Z,80.61
2022-10-05T00:23:57.252Z,80.56
2022-10-05T00:26:28.106Z,80.58
2022-10-05T00:28:56.226Z,80.68
2022-10-05T00:31:30.944Z,80.78
2022-10-05T00:33:59.387Z,80.67
2022-10-05T00:36:27.691Z,80.75
2022-10-05T00:38:55.999Z,80.60
2022-10-05T00:41:40.620Z,80.72
2022-10-05T00:44:59.155Z,80.69
2022-10-05T00:47:39.903Z,80.73
2022-10-05T00:50:29.708Z,80.71
2022-10-05T00:53:13.218Z,80.69
2022-10-05T00:55:52.591Z,80.90
2022-10-05T00:58:56.570Z,80.74
2022-10-05T01:01:43.298Z,80.86
2022-10-05T01:08:50.094Z,81.19
2022-10-05T01:15:48.617Z,81.26
2022-10-05T01:18:31.998Z,81.36
2022-10-05T01:21:06.113Z,81.44
2022-10-05T01:23:52.782Z,81.30
2022-10-05T01:26:23.612Z,81.42
2022-10-05T01:29:30.358Z,81.45
2022-10-05T01:32:24.018Z,81.53
2022-10-05T01:35:43.234Z,81.62
2022-10-05T01:38:26.182Z,81.62
2022-10-05T01:41:12.474Z,81.61
2022-10-05T01:43:46.472Z,81.76
2022-10-05T01:46:27.437Z,81.80
2022-10-05T01:50:14.211Z,81.77
2022-10-05T01:53:02.638Z,82.07
2022-10-05T01:55:36.772Z,82.25
2022-10-05T02:02:16.756Z,82.53
2022-10-05T02:05:04.414Z,82.58
2022-10-05T02:07:38.131Z,82.60
2022-10-05T02:10:11.348Z,82.51
2022-10-05T02:16:58.052Z,82.80
2022-10-05T02:19:32.204Z,82.81
2022-10-05T02:22:06.727Z,82.94
2022-10-05T02:24:40.839Z,82.91
2022-10-05T02:27:13.854Z,83.18
2022-10-05T02:29:46.267Z,83.21
2022-10-05T02:32:21.844Z,83.08
2022-10-05T02:34:50.256Z,83.24
2022-10-05T02:37:29.680Z,83.21
2022-10-05T02:40:00.775Z,83.10
2022-10-05T02:43:19.136Z,83.25
2022-10-05T02:46:17.100Z,83.43
2022-10-05T02:49:11.987Z,83.51
2022-10-05T02:51:54.515Z,83.68
2022-10-05T02:54:38.379Z,83.59
2022-10-05T02:57:20.699Z,83.66
2022-10-05T03:00:16.483Z,83.64
2022-10-05T03:03:09.631Z,83.65
2022-10-05T03:05:48.455Z,83.88
2022-10-05T03:08:35.038Z,83.89
2022-10-05T03:11:20.976Z,83.93
2022-10-05T03:14:02.012Z,84.14
2022-10-05T03:16:52.402Z,83.98
2022-10-05T03:19:37.091Z,83.99
2022-10-05T03:22:43.319Z,83.90
2022-10-05T03:26:29.241Z,84.14
2022-10-05T03:29:08.368Z,84.34
2022-10-05T03:31:49.005Z,84.47
2022-10-05T03:34:36.177Z,84.59
2022-10-05T03:37:20.930Z,84.75
2022-10-05T03:40:20.285Z,84.76
2022-10-05T03:43:00.526Z,84.63
2022-10-05T03:46:03.190Z,84.85
2022-10-05T03:48:50.233Z,84.87
2022-10-05T03:52:10.332Z,85.05
2022-10-05T03:54:43.561Z,85.26
2022-10-05T03:57:18.245Z,85.23
2022-10-05T03:59:59.098Z,85.27
2022-10-05T04:02:41.904Z,85.37
2022-10-05T04:05:10.143Z,85.44
2022-10-05T04:07:43.722Z,85.69
2022-10-05T04:10:29.348Z,85.39
2022-10-05T04:17:32.189Z,85.62
2022-10-05T04:20:10.645Z,85.95
2022-10-05T04:22:46.457Z,85.93
2022-10-05T04:25:23.974Z,86.02
2022-10-05T04:28:02.954Z,85.86
2022-10-05T04:30:34.282Z,86.12
2022-10-05T04:33:09.032Z,86.18
2022-10-05T04:35:52.333Z,86.21
2022-10-05T04:38:30.085Z,86.23
2022-10-05T04:41:05.733Z,86.23
2022-10-05T04:43:55.709Z,86.42
2022-10-05T04:46:24.943Z,86.40
2022-10-05T04:53:30.321Z,86.61
2022-10-05T04:56:08.261Z,86.92
2022-10-05T04:58:54.684Z,86.88
2022-10-05T05:02:00.605Z,87.17
2022-10-05T05:05:00.843Z,87.07
2022-10-05T05:07:41.115Z,87.20
2022-10-05T05:10:40.104Z,87.25
2022-10-05T05:13:51.984Z,87.28
2022-10-05T05:16:49.129Z,87.23
2022-10-05T05:19:31.437Z,87.36
2022-10-05T05:22:23.012Z,87.50
2022-10-05T05:25:23.235Z,87.51
2022-10-05T05:28:31.043Z,87.54
2022-10-05T05:31:10.176Z,87.60
2022-10-05T05:33:54.855Z,87.72
2022-10-05T05:36:32.346Z,87.77
2022-10-05T05:39:06.886Z,87.83
2022-10-05T05:42:25.415Z,87.93
2022-10-05T05:44:56.786Z,88.00
2022-10-05T05:47:59.098Z,87.98
2022-10-05T05:50:55.226Z,87.88
2022-10-05T05:53:53.651Z,88.13
2022-10-05T05:56:34.943Z,88.00
2022-10-05T05:59:32.838Z,87.96
2022-10-05T06:02:20.066Z,88.05
2022-10-05T06:05:22.745Z,88.06
2022-10-05T06:07:54.080Z,88.12
2022-10-05T06:10:22.316Z,88.09
2022-10-05T06:13:06.624Z,88.16
2022-10-05T06:19:49.785Z,88.03
2022-10-05T06:22:25.638Z,88.07
2022-10-05T06:25:12.392Z,87.95
2022-10-05T06:28:02.987Z,87.80
2022-10-05T06:30:42.583Z,87.66
2022-10-05T06:33:38.426Z,87.41
2022-10-05T06:36:23.693Z,87.52
2022-10-05T06:39:21.369Z,87.41
2022-10-05T06:42:15.020Z,87.14
2022-10-05T06:45:29.387Z,87.24
2022-10-05T06:53:04.801Z,86.84
2022-10-05T06:55:51.627Z,86.60
2022-10-05T06:58:46.483Z,86.55
2022-10-05T07:01:20.840Z,85.99
2022-10-05T07:04:33.396Z,85.71
2022-10-05T07:07:29.752Z,85.53
2022-10-05T07:10:13.163Z,85.52
2022-10-05T07:13:17.999Z,85.19
2022-10-05T07:15:53.617Z,84.98
2022-10-05T07:18:39.878Z,84.79
2022-10-05T07:21:20.299Z,84.35
2022-10-05T07:23:59.547Z,84.25
2022-10-05T07:26:37.539Z,84.03
2022-10-05T07:29:35.148Z,83.87
2022-10-05T07:32:47.393Z,83.57
2022-10-05T07:35:46.469Z,82.96
2022-10-05T07:38:27.762Z,82.51
2022-10-05T07:41:01.925Z,82.44
2022-10-05T07:44:02.003Z,81.97
2022-10-05T07:46:56.903Z,82.00
2022-10-05T07:49:54.351Z,81.67
2022-10-05T07:52:40.705Z,81.93
2022-10-05T07:55:19.825Z,81.33
2022-10-05T07:58:23.835Z,80.87
2022-10-05T08:01:22.863Z,80.46
2022-10-05T08:04:03.561Z,80.21
2022-10-05T08:06:35.943Z,80.33
2022-10-05T08:09:20.589Z,80.45
2022-10-05T08:12:12.406Z,80.44
2022-10-05T08:14:52.902Z,80.54
2022-10-05T08:17:38.362Z,80.32
2022-10-05T08:20:29.890Z,80.66
2022-10-05T08:23:31.223Z,80.56
2022-10-05T08:25:59.263Z,80.23
2022-10-05T08:28:51.861Z,80.16
2022-10-05T08:31:31.992Z,80.43
2022-10-05T08:34:26.636Z,79.90
2022-10-05T08:37:09.582Z,79.41
2022-10-05T08:39:41.044Z,79.24
2022-10-05T08:42:27.758Z,79.26
2022-10-05T08:45:23.197Z,79.17
2022-10-05T08:48:00.172Z,79.09
2022-10-05T08:50:41.165Z,78.64
2022-10-05T08:53:15.360Z,78.42
2022-10-05T08:56:11.106Z,78.04
2022-10-05T08:59:01.163Z,77.86
2022-10-05T09:01:32.256Z,77.90
2022-10-05T09:04:09.481Z,77.82
2022-10-05T09:06:55.612Z,77.70
2022-10-05T09:09:48.633Z,77.08
2022-10-05T09:12:33.492Z,77.11
2022-10-05T09:15:26.782Z,77.54
2022-10-05T09:18:37.754Z,77.31
2022-10-05T09:21:18.449Z,76.87
2022-10-05T09:23:54.201Z,76.54
2022-10-05T09:26:46.644Z,76.29
2022-10-05T09:29:14.768Z,75.32
2022-10-05T09:32:06.788Z,74.53
2022-10-05T09:34:49.456Z,74.22
2022-10-05T09:37:36.060Z,73.21
2022-10-05T09:40:31.429Z,71.62
2022-10-05T09:43:32.147Z,70.76
2022-10-05T09:46:09.622Z,70.01
2022-10-05T09:48:56.636Z,70.02
2022-10-05T09:51:52.047Z,69.71
2022-10-05T09:55:05.689Z,69.74
2022-10-05T09:58:02.764Z,69.33
2022-10-05T10:00:55.583Z,69.43
2022-10-05T10:04:10.331Z,69.75
2022-10-05T10:06:47.205Z,69.99
2022-10-05T10:09:37.885Z,69.94
2022-10-05T10:12:35.218Z,69.93
2022-10-05T10:15:15.835Z,69.64
2022-10-05T10:18:02.474Z,68.93
2022-10-05T10:21:08.172Z,69.01
2022-10-05T10:23:45.755Z,69.26
2022-10-05T10:26:19.289Z,69.52
2022-10-05T10:29:32.054Z,69.40
2022-10-05T10:32:19.025Z,69.23
2022-10-05T10:35:19.593Z,68.08
2022-10-05T10:38:15.587Z,67.71
2022-10-05T10:41:14.724Z,66.32
2022-10-05T10:44:16.773Z,64.99
2022-10-05T10:47:08.164Z,65.06
2022-10-05T10:49:53.988Z,65.50
2022-10-05T10:52:48.361Z,63.87
2022-10-05T10:55:28.406Z,62.39
2022-10-05T10:58:16.267Z,59.43
2022-10-05T11:00:48.824Z,59.59
2022-10-05T11:03:25.873Z,59.58
2022-10-05T11:06:17.421Z,60.53
2022-10-05T11:08:46.588Z,60.54
2022-10-05T11:11:20.073Z,60.78
2022-10-05T11:14:32.700Z,60.43
2022-10-05T11:17:31.834Z,61.65
2022-10-05T11:20:18.878Z,62.06
2022-10-05T11:23:17.612Z,61.19
2022-10-05T11:26:32.632Z,59.54
2022-10-05T11:29:00.736Z,59.54
2022-10-05T11:32:16.575Z,59.42
2022-10-05T11:35:03.448Z,59.73
2022-10-05T11:38:03.835Z,59.25
2022-10-05T11:41:02.684Z,59.02
2022-10-05T11:44:06.121Z,59.74
2022-10-05T11:47:03.004Z,60.06
2022-10-05T11:49:35.829Z,61.21
2022-10-05T11:52:17.297Z,61.58
2022-10-05T11:55:30.446Z,61.68
2022-10-05T11:58:13.992Z,60.42
2022-10-05T12:00:56.534Z,59.69
2022-10-05T12:03:49.557Z,59.54
2022-10-05T12:07:03.036Z,59.22
2022-10-05T12:10:14.515Z,58.76
2022-10-05T12:13:02.936Z,59.25
2022-10-05T12:16:02.488Z,59.06
2022-10-05T12:18:30.628Z,60.20
2022-10-05T12:21:27.817Z,60.57
2022-10-05T12:24:01.554Z,60.76
2022-10-05T12:26:29.541Z,61.20
2022-10-05T12:29:17.243Z,61.12
2022-10-05T12:31:56.960Z,60.45
2022-10-05T12:34:30.278Z,60.09
2022-10-05T12:37:08.292Z,59.40
2022-10-05T12:39:39.465Z,59.42
2022-10-05T12:42:32.156Z,58.97
2022-10-05T12:45:08.151Z,58.43
2022-10-05T12:47:54.527Z,57.48
2022-10-05T12:50:33.100Z,57.01
2022-10-05T12:53:25.218Z,57.64
2022-10-05T12:56:08.715Z,57.75
2022-10-05T12:59:14.627Z,58.25
2022-10-05T13:02:05.943Z,58.21
2022-10-05T13:04:43.011Z,58.10
2022-10-05T13:07:13.827Z,58.51
2022-10-05T13:09:45.215Z,58.08
2022-10-05T13:12:23.967Z,57.61
2022-10-05T13:15:15.623Z,56.03
2022-10-05T13:18:06.491Z,57.00
2022-10-05T13:20:37.381Z,57.33
2022-10-05T13:23:39.094Z,57.56
2022-10-05T13:26:12.970Z,57.99
2022-10-05T13:29:03.839Z,58.19
2022-10-05T13:31:40.882Z,57.77
2022-10-05T13:34:24.865Z,57.46
2022-10-05T13:37:11.192Z,56.22
2022-10-05T13:39:53.464Z,55.67
2022-10-05T13:42:32.384Z,55.48
2022-10-05T13:45:12.385Z,55.81
2022-10-05T13:48:08.016Z,55.93
2022-10-05T13:50:48.058Z,56.00
2022-10-05T13:53:31.058Z,56.53
2022-10-05T13:56:06.816Z,56.81
2022-10-05T13:59:05.408Z,56.66
2022-10-05T14:01:49.021Z,56.74
2022-10-05T14:04:24.743Z,56.98
2022-10-05T14:06:53.417Z,55.29
2022-10-05T14:09:34.448Z,56.08
2022-10-05T14:12:05.525Z,56.68
2022-10-05T14:14:43.852Z,56.38
2022-10-05T14:17:30.705Z,55.11
2022-10-05T14:20:03.561Z,54.21
2022-10-05T14:22:42.255Z,54.11
2022-10-05T14:25:10.465Z,54.82
2022-10-05T14:28:12.657Z,55.28
2022-10-05T14:30:59.311Z,55.60
2022-10-05T14:33:31.100Z,56.00
2022-10-05T14:36:00.048Z,56.53
2022-10-05T14:38:29.957Z,56.76
2022-10-05T14:41:05.655Z,56.94
2022-10-05T14:43:35.590Z,56.95
2022-10-05T14:46:23.271Z,56.68
2022-10-05T14:49:22.794Z,56.70
2022-10-05T14:51:51.768Z,57.27
2022-10-05T14:54:32.269Z,57.29
2022-10-05T14:57:18.543Z,56.68
2022-10-05T15:00:00.286Z,56.61
2022-10-05T15:03:03.605Z,56.36
2022-10-05T15:06:00.476Z,57.03
2022-10-05T15:09:17.352Z,57.58
2022-10-05T15:11:53.398Z,58.17
2022-10-05T15:14:26.126Z,58.61
2022-10-05T15:16:59.053Z,59.43
2022-10-05T15:19:58.197Z,59.87
2022-10-05T15:23:08.268Z,60.26
2022-10-05T15:26:28.743Z,61.17
2022-10-05T15:29:10.846Z,61.65
2022-10-05T15:32:03.994Z,61.94
2022-10-05T15:34:41.572Z,62.63
2022-10-05T15:37:17.434Z,62.78
2022-10-05T15:40:03.007Z,63.25
2022-10-05T15:42:43.162Z,63.69
2022-10-05T15:45:20.701Z,64.01
2022-10-05T15:48:03.981Z,64.38
2022-10-05T15:50:37.476Z,64.57
2022-10-05T15:53:12.497Z,64.89
2022-10-05T15:56:00.140Z,65.28
2022-10-05T15:58:42.618Z,65.37
2022-10-05T16:01:16.270Z,65.79
2022-10-05T16:03:53.401Z,65.97
2022-10-05T16:06:39.913Z,66.42
2022-10-05T16:09:26.765Z,66.79
2022-10-05T16:12:00.939Z,66.88
2022-10-05T16:14:29.193Z,67.36
2022-10-05T16:17:15.067Z,67.18
2022-10-05T16:20:03.213Z,67.46
2022-10-05T16:22:31.372Z,67.92
2022-10-05T16:25:07.577Z,68.32
2022-10-05T16:28:17.663Z,68.18
2022-10-05T16:30:48.395Z,68.71
2022-10-05T16:33:53.022Z,68.87
2022-10-05T16:36:58.828Z,69.25
2022-10-05T16:39:50.411Z,69.56
2022-10-05T16:42:25.142Z,69.88
2022-10-05T16:45:18.224Z,70.11
2022-10-05T16:48:06.914Z,70.41
2022-10-05T16:50:44.234Z,70.51
2022-10-05T16:53:30.744Z,70.92
2022-10-05T16:56:07.293Z,71.02
2022-10-05T16:58:58.311Z,71.38
2022-10-05T17:02:16.592Z,71.70
2022-10-05T17:04:56.776Z,71.69
2022-10-05T17:07:57.019Z,72.15
2022-10-05T17:10:44.632Z,72.38
2022-10-05T17:13:34.432Z,72.51
2022-10-05T17:16:33.470Z,72.87
2022-10-05T17:19:34.387Z,73.05
2022-10-05T17:22:23.714Z,73.40
2022-10-05T17:25:03.880Z,73.62
2022-10-05T17:28:11.923Z,73.86
2022-10-05T17:31:23.719Z,74.12
2022-10-05T17:34:26.438Z,74.35
2022-10-05T17:37:15.814Z,74.53
2022-10-05T17:39:53.207Z,74.77
2022-10-05T17:42:30.249Z,75.05
2022-10-05T17:45:00.257Z,75.22
2022-10-05T17:48:02.074Z,75.30
2022-10-05T17:51:04.070Z,75.46
2022-10-05T17:54:04.741Z,75.60
2022-10-05T17:56:54.442Z,75.86
2022-10-05T17:59:38.885Z,76.05
2022-10-05T18:02:40.912Z,76.07
2022-10-05T18:05:18.206Z,76.41
2022-10-05T18:07:51.002Z,76.27
2022-10-05T18:10:29.906Z,76.58
2022-10-05T18:13:01.025Z,76.62
2022-10-05T18:15:41.209Z,76.74
2022-10-05T18:19:29.906Z,77.02
2022-10-05T18:22:22.898Z,77.05
2022-10-05T18:25:04.501Z,77.17
2022-10-05T18:28:17.427Z,77.23
2022-10-05T18:31:17.679Z,77.61
2022-10-05T18:34:16.994Z,77.78
2022-10-05T18:37:33.417Z,77.77
2022-10-05T18:40:24.681Z,77.88
2022-10-05T18:43:10.182Z,78.18
2022-10-05T18:45:44.122Z,78.28
2022-10-05T18:48:20.664Z,78.34
2022-10-05T18:51:11.016Z,78.42
2022-10-05T18:54:09.734Z,78.58
2022-10-05T18:56:51.129Z,78.72
2022-10-05T18:59:51.818Z,78.89
2022-10-05T19:02:43.284Z,79.05
2022-10-05T19:05:46.447Z,78.93
2022-10-05T19:08:33.547Z,79.24
2022-10-05T19:11:23.298Z,79.36
2022-10-05T19:14:20.627Z,79.59
2022-10-05T19:17:07.704Z,79.64
2022-10-05T19:19:35.773Z,79.86
2022-10-05T19:22:11.480Z,80.01
2022-10-05T19:25:01.953Z,79.84
2022-10-05T19:27:57.009Z,80.27
2022-10-05T19:30:33.535Z,80.37
2022-10-05T19:33:21.952Z,80.39
2022-10-05T19:36:17.501Z,80.41
2022-10-05T19:38:51.663Z,80.52
2022-10-05T19:41:43.965Z,80.63
2022-10-05T19:44:36.509Z,80.79
2022-10-05T19:47:24.195Z,80.82
2022-10-05T19:49:52.316Z,81.08
2022-10-05T19:52:31.221Z,80.88
2022-10-05T19:55:26.579Z,81.12
2022-10-05T19:57:58.220Z,81.13
2022-10-05T20:00:35.535Z,81.14
2022-10-05T20:03:14.727Z,81.08
2022-10-05T20:05:43.384Z,81.21
2022-10-05T20:08:20.480Z,81.33
2022-10-05T20:12:03.516Z,81.29
2022-10-05T20:14:33.612Z,81.42
2022-10-05T20:18:00.829Z,81.58
2022-10-05T20:20:31.897Z,81.62
2022-10-05T20:23:19.290Z,81.62
2022-10-05T20:26:07.432Z,81.60
2022-10-05T20:28:35.717Z,81.77
2022-10-05T20:31:06.892Z,81.81
2022-10-05T20:33:35.202Z,81.86
2022-10-05T20:36:03.821Z,81.69
2022-10-05T20:38:35.184Z,81.96
2022-10-05T20:41:05.702Z,82.07
2022-10-05T20:43:33.822Z,82.08
2022-10-05T20:46:02.694Z,82.21
2022-10-05T20:48:31.336Z,82.12
2022-10-05T20:51:00.394Z,82.11
2022-10-05T20:53:29.084Z,82.30
2022-10-05T20:55:59.960Z,82.35
2022-10-05T20:58:28.362Z,82.25
2022-10-05T21:01:15.708Z,82.49
2022-10-05T21:03:44.125Z,82.48
2022-10-05T21:06:12.701Z,82.52
2022-10-05T21:08:40.844Z,82.69
2022-10-05T21:11:11.785Z,82.72
2022-10-05T21:13:45.395Z,82.77
2022-10-05T21:19:57.848Z,83.10
2022-10-05T21:22:26.030Z,82.91
2022-10-05T21:24:55.350Z,83.09
2022-10-05T21:27:23.923Z,83.12
2022-10-05T21:29:52.316Z,83.13
2022-10-05T21:32:20.513Z,83.14
2022-10-05T21:34:48.700Z,83.14
2022-10-05T21:37:42.204Z,83.33
2022-10-05T21:40:10.850Z,83.19
2022-10-05T21:42:40.122Z,83.38
2022-10-05T21:45:08.890Z,83.39
2022-10-05T21:47:41.457Z,83.49
2022-10-05T21:50:14.978Z,83.70
2022-10-05T21:52:43.531Z,83.94
2022-10-05T21:55:11.764Z,83.71
2022-10-05T21:57:41.394Z,83.70
2022-10-05T22:00:10.689Z,83.78
2022-10-05T22:03:53.934Z,83.78
2022-10-05T22:06:22.022Z,83.88
2022-10-05T22:08:50.285Z,84.08
2022-10-05T22:11:18.558Z,84.14
2022-10-05T22:13:49.497Z,84.05
2022-10-05T22:20:25.449Z,84.17
2022-10-05T22:22:54.213Z,84.28
2022-10-05T22:26:36.925Z,84.45
2022-10-05T22:29:05.214Z,84.56
2022-10-05T22:31:35.716Z,84.79
2022-10-05T22:34:03.957Z,84.71
2022-10-05T22:36:37.474Z,84.80
2022-10-05T22:39:05.587Z,84.87
2022-10-05T22:41:33.919Z,84.83
2022-10-05T22:44:02.889Z,84.94
2022-10-05T22:46:31.121Z,84.94
2022-10-05T22:48:59.305Z,85.02
2022-10-05T22:51:27.517Z,85.06
2022-10-05T22:53:55.708Z,85.00
2022-10-05T22:56:24.112Z,85.01
2022-10-05T23:03:15.880Z,85.06
2022-10-05T23:05:44.076Z,85.12
2022-10-05T23:08:12.232Z,85.18
2022-10-05T23:10:40.429Z,85.00
2022-10-05T23:13:09.064Z,85.10
2022-10-05T23:15:37.300Z,85.20
2022-10-05T23:18:07.521Z,85.28
2022-10-05T23:20:35.721Z,85.31
2022-10-05T23:23:03.840Z,85.37
2022-10-05T23:25:31.987Z,85.45
2022-10-05T23:28:02.560Z,85.54
2022-10-05T23:30:31.118Z,85.50
2022-10-05T23:33:01.293Z,85.69
2022-10-05T23:35:29.469Z,86.02
2022-10-05T23:37:57.592Z,86.04
2022-10-05T23:44:48.964Z,86.37
2022-10-05T23:47:17.153Z,86.26
2022-10-05T23:49:45.348Z,86.37
2022-10-05T23:52:14.549Z,86.47
2022-10-05T23:54:42.689Z,86.42
2022-10-05T23:57:10.881Z,86.21
